Time;durP1;ratioP1;P1;durP2;ratioP2;P2;SDS_P1;SDS_P2;PMS_P1;PMS_P2;Temp;Humidity;BMP_temperature;BMP_pressure;BME280_temperature;BME280_humidity;BME280_pressure;Samples;Min_cycle;Max_cycle;Signal;HPM_P1;HPM_P2
2022/08/26 00:02:17;;;;;;;27.95;19.30;;;;;;;17.28;100.00;96606.28;10452936;28;20184;-73
2022/08/26 00:07:17;;;;;;;32.38;18.98;;;;;;;17.26;100.00;96601.19;10452086;28;20230;-73
2022/08/26 00:12:18;;;;;;;35.28;18.40;;;;;;;17.27;100.00;96604.63;10452389;28;20553;-73
2022/08/26 00:17:18;;;;;;;29.20;18.10;;;;;;;17.21;100.00;96600.16;10451505;28;20226;-73
2022/08/26 00:22:18;;;;;;;31.05;17.63;;;;;;;17.14;100.00;96592.22;10451928;28;20286;-73
2022/08/26 00:27:19;;;;;;;24.33;17.92;;;;;;;17.06;100.00;96582.63;10451730;28;20192;-73
2022/08/26 00:32:19;;;;;;;33.45;17.85;;;;;;;17.06;100.00;96579.13;10451776;28;20271;-73
2022/08/26 00:37:20;;;;;;;35.83;18.33;;;;;;;17.00;100.00;96575.50;10451496;28;20227;-73
2022/08/26 00:42:20;;;;;;;35.13;17.50;;;;;;;16.99;100.00;96581.78;10451079;28;20248;-73
2022/08/26 00:47:29;;;;;;;29.15;17.25;;;;;;;16.88;100.00;96574.44;10433173;28;20199;-73
2022/08/26 00:52:30;;;;;;;40.58;18.63;;;;;;;16.76;100.00;96572.31;10433220;28;20683;-73
2022/08/26 00:57:31;;;;;;;32.17;16.42;;;;;;;16.87;100.00;96570.97;10432942;28;20218;-73
2022/08/26 01:02:32;;;;;;;35.17;19.40;;;;;;;16.81;100.00;96565.63;10432297;28;20192;-73
2022/08/26 01:07:32;;;;;;;34.38;17.65;;;;;;;16.78;100.00;96561.53;10449992;28;20231;-73
2022/08/26 01:12:40;;;;;;;30.85;17.80;;;;;;;16.80;100.00;96564.00;10450822;28;20542;-72
2022/08/26 01:17:40;;;;;;;35.90;18.00;;;;;;;16.85;100.00;96565.03;10432340;28;20595;-72
2022/08/26 01:22:49;;;;;;;33.60;16.90;;;;;;;16.85;100.00;96565.03;10432663;28;20191;-72
2022/08/26 01:27:50;;;;;;;34.83;17.05;;;;;;;16.89;100.00;96565.47;10432410;28;20195;-73
2022/08/26 01:32:50;;;;;;;29.38;16.95;;;;;;;16.85;100.00;96564.22;10432505;28;20192;-73
2022/08/26 01:37:53;;;;;;;34.33;16.55;;;;;;;16.89;100.00;96562.81;10431985;28;20244;-73
2022/08/26 01:42:53;;;;;;;28.50;16.85;;;;;;;16.86;100.00;96560.53;10432103;28;20195;-73
2022/08/26 01:47:56;;;;;;;27.13;15.77;;;;;;;16.84;100.00;96560.75;10432162;28;20536;-72
2022/08/26 01:53:01;;;;;;;26.25;15.40;;;;;;;16.86;100.00;96563.19;10431854;28;20795;-73
2022/08/26 01:58:07;;;;;;;31.48;16.75;;;;;;;16.83;100.00;96555.66;10435355;28;20216;-73
2022/08/26 02:03:16;;;;;;;31.42;16.77;;;;;;;16.84;100.00;96560.75;10439473;28;20184;-72
2022/08/26 02:08:17;;;;;;;35.22;16.80;;;;;;;16.87;100.00;96557.72;10457118;28;20299;-72
2022/08/26 02:13:18;;;;;;;35.60;16.65;;;;;;;16.86;100.00;96555.25;10439425;28;20533;-72
2022/08/26 02:18:18;;;;;;;34.67;15.93;;;;;;;16.81;100.00;96557.69;10456282;28;20224;-73
2022/08/26 02:23:19;;;;;;;29.45;16.05;;;;;;;16.74;100.00;96555.84;10439073;28;20563;-73
2022/08/26 02:28:19;;;;;;;33.25;15.38;;;;;;;16.58;100.00;96557.03;10456094;28;20294;-72
2022/08/26 02:33:19;;;;;;;27.05;15.35;;;;;;;16.55;100.00;96552.13;10456711;28;20238;-73
2022/08/26 02:38:20;;;;;;;34.10;16.52;;;;;;;16.63;100.00;96558.25;10455942;28;20223;-73
2022/08/26 02:43:20;;;;;;;29.95;15.95;;;;;;;16.56;100.00;96555.59;10455959;28;20191;-72
2022/08/26 02:48:21;;;;;;;37.55;15.98;;;;;;;16.58;100.00;96556.19;10456210;28;20214;-73
2022/08/26 02:53:21;;;;;;;25.75;14.80;;;;;;;16.52;100.00;96554.34;10437251;28;20188;-73
2022/08/26 02:58:22;;;;;;;35.17;15.23;;;;;;;16.43;100.00;96544.97;10455494;28;20982;-72
2022/08/26 03:03:22;;;;;;;21.90;15.10;;;;;;;16.34;100.00;96546.94;10453322;28;20290;-73
2022/08/26 03:08:22;;;;;;;28.05;16.05;;;;;;;16.21;100.00;96539.78;10451023;28;20227;-72
2022/08/26 03:13:23;;;;;;;31.35;16.27;;;;;;;16.19;100.00;96542.63;10451115;28;20200;-73
2022/08/26 03:18:23;;;;;;;30.13;15.73;;;;;;;16.17;100.00;96543.81;10449948;28;20322;-73
2022/08/26 03:23:24;;;;;;;30.15;15.23;;;;;;;16.12;100.00;96536.47;10451001;28;20188;-73
2022/08/26 03:28:24;;;;;;;34.35;16.70;;;;;;;16.10;100.00;96540.34;10449826;28;20184;-73
2022/08/26 03:33:25;;;;;;;31.98;16.23;;;;;;;15.97;100.00;96535.78;10450410;28;20686;-73
2022/08/26 03:38:26;;;;;;;37.85;15.57;;;;;;;15.96;100.00;96539.47;10449367;28;20247;-73
2022/08/26 03:43:26;;;;;;;34.97;16.70;;;;;;;15.89;100.00;96538.59;10449273;28;20207;-73
2022/08/26 03:48:26;;;;;;;25.25;15.73;;;;;;;15.92;100.00;96533.72;10449355;28;20204;-73
2022/08/26 03:53:27;;;;;;;32.03;16.33;;;;;;;15.95;100.00;96537.81;10448848;28;20283;-73
2022/08/26 03:58:27;;;;;;;28.05;16.42;;;;;;;15.85;100.00;96540.81;10448926;28;20761;-73
2022/08/26 04:08:47;;;;;;;30.98;17.30;;;;;;;15.89;100.00;96539.41;10452742;28;20702;-73
2022/08/26 04:13:48;;;;;;;42.30;18.65;;;;;;;15.98;100.00;96551.44;10452647;28;20187;-73
2022/08/26 04:18:48;;;;;;;28.13;18.63;;;;;;;16.04;100.00;96549.88;10451984;28;20220;-72
2022/08/26 04:23:49;;;;;;;32.20;17.67;;;;;;;15.92;100.00;96548.78;10451376;28;20207;-73
2022/08/26 04:28:52;;;;;;;30.60;16.38;;;;;;;15.97;100.00;96555.13;10434305;28;20271;-74
2022/08/26 04:33:52;;;;;;;39.30;18.67;;;;;;;15.92;100.00;96554.06;10451325;28;20214;-74
2022/08/26 04:38:52;;;;;;;31.77;18.92;;;;;;;16.03;100.00;96559.63;10451995;28;20713;-74
2022/08/26 04:43:53;;;;;;;36.58;18.13;;;;;;;16.23;100.00;96550.97;10451112;28;20644;-73
2022/08/26 04:48:53;;;;;;;27.40;16.67;;;;;;;16.25;100.00;96554.25;10451475;28;20231;-73
2022/08/26 04:53:58;;;;;;;33.97;18.08;;;;;;;16.23;100.00;96546.50;10450211;28;20195;-73
2022/08/26 04:58:59;;;;;;;35.50;18.55;;;;;;;16.30;100.00;96548.38;10438715;28;20560;-73
2022/08/26 05:04:00;;;;;;;32.92;19.25;;;;;;;16.35;100.00;96554.69;10428418;28;20184;-73
2022/08/26 05:09:00;;;;;;;33.20;17.98;;;;;;;16.40;100.00;96546.16;10430233;28;20244;-72
2022/08/26 05:14:00;;;;;;;35.20;18.90;;;;;;;16.52;100.00;96549.91;10429635;28;20267;-73
2022/08/26 05:19:01;;;;;;;31.77;18.95;;;;;;;16.70;100.00;96559.09;10423861;28;20279;-73
2022/08/26 05:24:03;;;;;;;37.53;18.17;;;;;;;16.80;100.00;96567.47;10408386;28;20199;-73
2022/08/26 05:29:05;;;;;;;30.90;18.08;;;;;;;16.91;100.00;96566.09;10408403;28;20192;-73
2022/08/26 05:34:06;;;;;;;24.83;16.23;;;;;;;17.07;100.00;96564.91;10430593;28;20214;-73
2022/08/26 05:39:06;;;;;;;28.95;16.50;;;;;;;17.00;100.00;96564.06;10438756;28;20219;-73
2022/08/26 05:44:09;;;;;;;24.13;16.23;;;;;;;17.07;100.00;96555.13;10407780;28;20755;-74
2022/08/26 05:49:12;;;;;;;27.63;16.92;;;;;;;17.19;100.00;96546.59;10417299;28;20327;-74
2022/08/26 05:54:13;;;;;;;36.42;16.60;;;;;;;17.40;100.00;96546.41;10431938;28;20557;-74
2022/08/26 05:59:14;;;;;;;23.98;14.93;;;;;;;17.54;100.00;96538.47;10422493;28;20215;-74
2022/08/26 06:04:14;;;;;;;26.38;15.77;;;;;;;17.71;100.00;96537.00;10424160;28;20196;-74
2022/08/26 06:09:14;;;;;;;22.05;14.23;;;;;;;17.80;100.00;96532.31;10449108;28;20185;-75
2022/08/26 06:14:16;;;;;;;29.45;14.77;;;;;;;17.99;100.00;96526.19;10438805;28;20344;-75
2022/08/26 06:19:16;;;;;;;33.08;15.15;;;;;;;18.29;100.00;96523.03;10455074;28;20275;-75
2022/08/26 06:29:35;;;;;;;22.77;12.98;;;;;;;18.54;100.00;96512.53;10451169;28;20208;-75
2022/08/26 06:34:36;;;;;;;24.70;12.38;;;;;;;18.74;100.00;96505.47;10428185;28;20208;-75
2022/08/26 06:39:36;;;;;;;26.50;12.82;;;;;;;18.92;100.00;96499.47;10453124;28;20210;-75
2022/08/26 06:44:36;;;;;;;24.77;12.43;;;;;;;18.97;100.00;96497.78;10452344;28;20200;-74
2022/08/26 06:49:37;;;;;;;25.90;12.48;;;;;;;19.33;100.00;96490.19;10451538;28;20279;-75
2022/08/26 06:54:41;;;;;;;27.63;12.07;;;;;;;19.68;100.00;96492.28;10453870;28;20192;-74
2022/08/26 06:59:42;;;;;;;22.42;10.95;;;;;;;19.90;100.00;96480.22;10436340;28;20234;-74
2022/08/26 07:04:43;;;;;;;22.48;11.30;;;;;;;20.00;100.00;96481.56;10441124;28;20232;-73
2022/08/26 07:09:43;;;;;;;24.80;11.10;;;;;;;20.47;100.00;96479.13;10431565;28;20985;-73
2022/08/26 07:14:43;;;;;;;31.17;10.90;;;;;;;21.00;100.00;96473.09;10428705;28;20192;-73
2022/08/26 07:19:45;;;;;;;22.13;11.23;;;;;;;21.53;100.00;96470.59;10412174;28;20197;-73
2022/08/26 07:24:45;;;;;;;24.80;10.93;;;;;;;22.55;100.00;96452.44;10411872;28;20180;-73
2022/08/26 07:29:46;;;;;;;32.20;10.27;;;;;;;23.41;100.00;96451.47;10418399;28;20196;-73
2022/08/26 07:34:47;;;;;;;28.85;9.55;;;;;;;24.37;100.00;96443.06;10435268;28;20216;-73
2022/08/26 07:39:47;;;;;;;22.85;8.27;;;;;;;26.35;100.00;96428.94;10429816;28;20223;-73
2022/08/26 07:44:48;;;;;;;27.67;8.47;;;;;;;26.02;96.04;96419.41;10451829;28;20192;-71
2022/08/26 07:49:49;;;;;;;26.25;7.53;;;;;;;25.41;99.55;96431.44;10452044;28;20442;-71
2022/08/26 07:54:49;;;;;;;22.38;8.13;;;;;;;24.54;100.00;96444.88;10452257;28;20279;-71
2022/08/26 07:59:50;;;;;;;30.77;8.57;;;;;;;24.16;100.00;96441.22;10434904;28;20203;-72
2022/08/26 08:04:51;;;;;;;23.33;7.70;;;;;;;23.88;100.00;96440.38;10410315;28;20475;-72
2022/08/26 08:09:51;;;;;;;31.58;8.68;;;;;;;23.74;100.00;96436.41;10407281;28;20196;-72
2022/08/26 08:14:52;;;;;;;19.30;7.80;;;;;;;23.59;100.00;96447.72;10440472;28;20637;-73
2022/08/26 08:19:52;;;;;;;26.23;9.52;;;;;;;22.98;100.00;96465.19;10408176;28;20188;-72
2022/08/26 08:24:53;;;;;;;24.38;9.60;;;;;;;22.61;100.00;96459.47;10427402;28;20726;-72
2022/08/26 08:29:53;;;;;;;22.88;9.98;;;;;;;22.35;100.00;96451.00;10448982;28;20925;-72
2022/08/26 08:34:54;;;;;;;34.63;10.15;;;;;;;22.03;100.00;96467.41;10450966;28;20220;-73
2022/08/26 08:39:55;;;;;;;23.17;10.23;;;;;;;21.21;100.00;96478.94;10448258;28;20183;-73
2022/08/26 08:44:57;;;;;;;21.05;8.02;;;;;;;20.10;100.00;96474.69;10448910;28;20192;-73
2022/08/26 08:50:05;;;;;;;21.65;9.77;;;;;;;19.40;100.00;96496.22;10430735;28;20191;-73
2022/08/26 08:55:07;;;;;;;19.95;10.73;;;;;;;18.92;100.00;96504.78;10423276;28;20293;-72
2022/08/26 09:00:11;;;;;;;21.45;10.20;;;;;;;18.82;100.00;96500.72;10419883;28;20185;-73
2022/08/26 09:05:20;;;;;;;21.75;10.40;;;;;;;18.80;100.00;96502.75;10431154;28;20235;-73
2022/08/26 09:10:36;;;;;;;16.13;10.32;;;;;;;18.94;100.00;96503.53;10428858;28;20204;-72
2022/08/26 09:15:58;;;;;;;20.48;10.00;;;;;;;19.05;100.00;96502.84;10427272;28;20242;-72
2022/08/26 09:21:07;;;;;;;20.05;11.10;;;;;;;19.45;100.00;96493.75;10426920;28;20231;-74
2022/08/26 09:26:20;;;;;;;18.33;9.75;;;;;;;20.01;100.00;96491.16;10421998;28;20961;-74
2022/08/26 09:31:32;;;;;;;17.30;8.70;;;;;;;20.79;100.00;96489.59;10423454;28;20276;-73
2022/08/26 09:36:45;;;;;;;16.95;9.75;;;;;;;21.48;100.00;96478.47;10411470;28;20216;-73
2022/08/26 09:42:01;;;;;;;14.07;10.10;;;;;;;22.39;100.00;96457.50;10406628;28;20560;-73
2022/08/26 09:47:04;;;;;;;14.48;8.13;;;;;;;22.59;100.00;96443.69;10447360;28;20188;-73
2022/08/26 09:52:08;;;;;;;11.35;6.15;;;;;;;23.04;100.00;96427.88;10447096;28;20199;-72
2022/08/26 09:57:22;;;;;;;8.90;5.70;;;;;;;22.78;100.00;96417.56;10445703;28;20220;-73
2022/08/26 10:02:28;;;;;;;15.00;6.18;;;;;;;23.22;100.00;96425.00;10429176;28;20192;-73
2022/08/26 10:07:52;;;;;;;12.30;5.82;;;;;;;22.93;100.00;96410.88;10446162;28;20231;-73
2022/08/26 10:13:11;;;;;;;11.85;6.40;;;;;;;23.24;100.00;96401.50;10435455;28;20659;-73
2022/08/26 10:18:19;;;;;;;11.95;6.60;;;;;;;22.74;100.00;96394.28;10401589;28;20307;-73
2022/08/26 10:23:24;;;;;;;12.15;5.82;;;;;;;23.68;100.00;96384.72;10397153;28;20196;-73
2022/08/26 10:28:30;;;;;;;8.43;4.63;;;;;;;25.19;98.46;96332.31;10414528;28;20667;-72
2022/08/26 10:33:31;;;;;;;9.45;5.15;;;;;;;26.79;86.72;96304.06;10424494;28;20184;-74
2022/08/26 10:38:34;;;;;;;7.28;3.80;;;;;;;28.07;79.89;96284.81;10453315;28;20238;-74
2022/08/26 10:43:40;;;;;;;7.65;3.40;;;;;;;28.50;65.07;96165.66;10435467;28;20210;-74
2022/08/26 10:48:47;;;;;;;7.40;2.83;;;;;;;28.97;63.20;96182.16;10434986;28;20195;-74
2022/08/26 10:53:57;;;;;;;4.95;2.72;;;;;;;25.59;69.99;96219.09;10434500;28;20196;-74
2022/08/26 10:59:08;;;;;;;8.50;2.60;;;;;;;27.13;65.90;96177.88;10451913;28;20219;-73
2022/08/26 11:04:29;;;;;;;4.80;3.20;;;;;;;28.10;63.09;96173.00;10450987;28;20188;-73
2022/08/26 11:09:45;;;;;;;6.78;3.40;;;;;;;29.82;59.65;96155.44;10416120;28;20648;-73
2022/08/26 11:14:46;;;;;;;8.50;3.47;;;;;;;31.13;58.26;96184.19;10452431;28;20269;-73
2022/08/26 11:19:52;;;;;;;8.88;3.00;;;;;;;33.01;52.28;96127.63;10435210;28;20253;-73
2022/08/26 11:24:55;;;;;;;5.13;2.63;;;;;;;33.82;49.40;96106.47;10451946;28;20606;-73
2022/08/26 11:30:28;;;;;;;9.43;2.97;;;;;;;30.84;49.67;95998.66;10451303;28;20188;-72
2022/08/26 11:35:40;;;;;;;6.07;3.00;;;;;;;33.15;48.62;96067.75;10427788;28;20216;-73
2022/08/26 11:40:41;;;;;;;9.30;2.65;;;;;;;32.50;48.85;96058.53;10435676;28;20225;-73
2022/08/26 11:45:45;;;;;;;6.15;2.55;;;;;;;33.18;47.76;96034.56;10411033;28;20192;-73
2022/08/26 11:51:00;;;;;;;4.55;2.60;;;;;;;32.43;48.98;96033.78;10434478;28;20187;-72
2022/08/26 11:56:04;;;;;;;11.13;2.97;;;;;;;31.76;53.18;96085.09;10431976;28;20234;-73
2022/08/26 12:01:06;;;;;;;7.90;2.50;;;;;;;32.53;49.63;96028.88;10433118;28;20188;-74
2022/08/26 12:06:29;;;;;;;9.20;3.10;;;;;;;30.58;51.91;96010.06;10442352;28;20227;-73
2022/08/26 12:11:32;;;;;;;10.30;3.40;;;;;;;26.80;62.17;96102.22;10407925;28;20192;-73
2022/08/26 12:16:35;;;;;;;7.05;3.50;;;;;;;28.04;60.87;96121.09;10427098;28;20220;-73
2022/08/26 12:21:36;;;;;;;8.93;3.42;;;;;;;27.51;65.14;96178.25;10438998;28;20199;-72
2022/08/26 12:26:36;;;;;;;6.18;3.30;;;;;;;26.53;72.83;96232.31;10436814;28;20188;-72
2022/08/26 12:31:39;;;;;;;8.55;3.75;;;;;;;24.41;84.89;96255.97;10449389;28;20882;-72
2022/08/26 12:36:51;;;;;;;10.25;3.97;;;;;;;24.18;96.43;96263.28;10449252;28;20224;-73
2022/08/26 12:42:04;;;;;;;10.90;4.72;;;;;;;24.28;89.49;96238.44;10399595;28;20223;-71
2022/08/26 12:47:23;;;;;;;9.57;4.47;;;;;;;24.08;94.07;96257.81;10445343;28;20671;-72
2022/08/26 12:52:28;;;;;;;15.05;5.38;;;;;;;23.36;98.35;96264.28;10449240;28;20245;-72
2022/08/26 12:57:34;;;;;;;18.73;6.00;;;;;;;22.87;100.00;96265.75;10433117;28;20299;-75
2022/08/26 13:02:37;;;;;;;16.95;6.25;;;;;;;23.35;100.00;96255.44;10450302;28;20196;-72
2022/08/26 13:07:37;;;;;;;11.57;6.15;;;;;;;23.03;100.00;96253.41;10448312;28;20746;-74
2022/08/26 13:12:39;;;;;;;13.30;5.80;;;;;;;23.07;100.00;96246.50;10431815;28;20286;-74
2022/08/26 13:17:40;;;;;;;12.38;6.00;;;;;;;23.23;100.00;96254.75;10448073;28;20718;-73
2022/08/26 13:22:40;;;;;;;14.13;6.13;;;;;;;23.04;100.00;96228.31;10448689;28;20200;-74
2022/08/26 13:27:41;;;;;;;10.10;6.35;;;;;;;23.15;100.00;96234.59;10445520;28;20191;-74
2022/08/26 13:32:41;;;;;;;13.57;6.20;;;;;;;23.15;100.00;96239.97;10426800;28;20184;-74
2022/08/26 13:37:42;;;;;;;14.35;7.00;;;;;;;23.56;100.00;96237.75;10406822;28;20242;-74
2022/08/26 13:42:42;;;;;;;14.90;7.57;;;;;;;23.27;100.00;96255.88;10395048;28;20291;-74
2022/08/26 13:47:43;;;;;;;17.02;6.72;;;;;;;23.48;100.00;96255.06;10428010;28;20247;-74
2022/08/26 13:52:43;;;;;;;13.90;6.43;;;;;;;24.18;100.00;96255.25;10449476;28;20279;-74
2022/08/26 13:57:44;;;;;;;13.02;6.60;;;;;;;24.05;100.00;96250.31;10421597;28;20222;-76
2022/08/26 14:02:44;;;;;;;12.73;7.05;;;;;;;23.63;100.00;96259.78;10443858;28;20310;-74
2022/08/26 14:07:44;;;;;;;14.77;7.70;;;;;;;22.64;100.00;96242.72;10453068;28;20723;-73
2022/08/26 14:12:45;;;;;;;12.90;7.40;;;;;;;23.29;100.00;96240.38;10417418;28;20676;-73
2022/08/26 14:17:46;;;;;;;11.25;6.43;;;;;;;24.42;97.56;96212.03;10444654;28;20211;-73
2022/08/26 14:22:46;;;;;;;8.80;6.15;;;;;;;24.38;89.55;96198.38;10451603;28;20199;-73
2022/08/26 14:27:51;;;;;;;10.20;6.28;;;;;;;25.25;87.09;96181.97;10426937;28;20536;-73
2022/08/26 14:32:55;;;;;;;10.70;6.18;;;;;;;24.39;90.58;96199.19;10418505;28;20281;-72
2022/08/26 14:37:56;;;;;;;9.05;6.88;;;;;;;23.88;92.93;96204.16;10408398;28;20236;-75
2022/08/26 14:42:57;;;;;;;16.80;6.30;;;;;;;24.88;88.61;96179.41;10411308;28;20197;-75
2022/08/26 14:47:58;;;;;;;9.18;5.50;;;;;;;25.08;87.00;96162.59;10393924;28;20188;-76
2022/08/26 14:58:17;;;;;;;11.88;6.28;;;;;;;25.32;85.86;96154.13;10429869;28;20303;-75
2022/08/26 15:03:18;;;;;;;11.07;6.07;;;;;;;25.48;85.33;96144.22;10413694;28;20206;-74
2022/08/26 15:08:19;;;;;;;9.27;6.65;;;;;;;24.47;87.47;96147.84;10429749;28;20230;-73
2022/08/26 15:13:19;;;;;;;13.68;6.40;;;;;;;23.67;92.88;96161.13;10414453;28;20904;-74
2022/08/26 15:18:21;;;;;;;10.32;6.18;;;;;;;23.97;92.35;96155.25;10428146;28;20216;-74
2022/08/26 15:23:21;;;;;;;12.10;6.50;;;;;;;25.30;85.17;96143.66;10429971;28;20187;-74
2022/08/26 15:28:22;;;;;;;9.85;5.75;;;;;;;26.10;77.06;96127.09;10412319;28;20196;-75
2022/08/26 15:33:22;;;;;;;10.57;5.78;;;;;;;26.71;74.11;96114.63;10427631;28;20195;-74
2022/08/26 15:38:22;;;;;;;9.38;5.95;;;;;;;25.03;80.74;96179.47;10410891;28;20267;-74
2022/08/26 15:43:24;;;;;;;13.03;6.50;;;;;;;25.21;81.29;96167.47;10412281;28;20572;-74
2022/08/26 15:48:24;;;;;;;12.32;6.22;;;;;;;25.81;78.96;96162.50;10427577;28;20789;-75
2022/08/26 15:53:26;;;;;;;12.88;5.90;;;;;;;25.30;79.81;96161.63;10439939;28;20195;-75
2022/08/26 15:58:27;;;;;;;8.57;5.80;;;;;;;25.01;83.61;96178.94;10428503;28;20305;-72
2022/08/26 16:03:28;;;;;;;6.60;5.90;;;;;;;25.35;82.23;96165.13;10429059;28;20207;-72
2022/08/26 16:08:28;;;;;;;8.13;5.18;;;;;;;25.71;80.15;96161.69;10427687;28;20758;-72
2022/08/26 16:13:28;;;;;;;8.00;5.00;;;;;;;26.67;76.57;96149.28;10431020;28;20718;-72
2022/08/26 16:18:52;;;;;;;10.60;5.13;;;;;;;28.26;66.74;96084.81;10438592;28;20977;-70
2022/08/26 16:24:05;;;;;;;5.72;4.47;;;;;;;28.25;63.58;96067.03;10452472;28;20199;-70
2022/08/26 16:29:17;;;;;;;7.85;4.38;;;;;;;27.46;67.56;96112.91;10432075;28;20195;-70
2022/08/26 16:34:18;;;;;;;8.50;4.82;;;;;;;26.50;69.62;96127.28;10417857;28;20657;-72
2022/08/26 16:39:18;;;;;;;6.97;4.87;;;;;;;26.18;71.06;96136.47;10420449;28;20303;-72
2022/08/26 16:44:20;;;;;;;6.72;4.78;;;;;;;25.22;76.55;96152.19;10407989;28;20450;-72
2022/08/26 16:49:21;;;;;;;10.35;5.03;;;;;;;25.34;74.07;96101.03;10409164;28;20193;-72
2022/08/26 16:54:21;;;;;;;12.25;5.00;;;;;;;24.56;79.19;96164.19;10408140;28;20193;-72
2022/08/26 16:59:22;;;;;;;8.27;4.75;;;;;;;24.35;79.02;96150.69;10407880;28;20236;-71
2022/08/26 17:04:23;;;;;;;7.50;5.28;;;;;;;24.11;81.49;96152.16;10407663;28;20223;-72
2022/08/26 17:09:24;;;;;;;8.15;5.45;;;;;;;24.12;83.32;96159.91;10407509;28;20204;-72
2022/08/26 17:14:24;;;;;;;10.73;5.28;;;;;;;23.65;86.73;96163.25;10407949;28;20220;-73
2022/08/26 17:19:26;;;;;;;8.25;5.05;;;;;;;23.88;88.61;96172.84;10390457;28;20586;-72
2022/08/26 17:24:26;;;;;;;8.45;5.95;;;;;;;23.59;88.19;96164.25;10407596;28;20255;-72
2022/08/26 17:29:26;;;;;;;15.13;6.90;;;;;;;23.29;95.60;96173.56;10411550;28;20257;-72
2022/08/26 17:34:27;;;;;;;14.98;6.85;;;;;;;23.05;100.00;96171.16;10417528;28;20223;-72
2022/08/26 17:39:27;;;;;;;14.35;7.88;;;;;;;22.77;100.00;96154.25;10417814;28;20212;-72
2022/08/26 17:44:28;;;;;;;11.50;7.57;;;;;;;22.51;100.00;96137.09;10417327;28;20211;-72
2022/08/26 17:49:28;;;;;;;15.05;8.60;;;;;;;22.31;100.00;96139.47;10416256;28;20242;-73
2022/08/26 17:54:29;;;;;;;11.95;7.78;;;;;;;22.05;100.00;96149.72;10416262;28;20299;-72
2022/08/26 17:59:29;;;;;;;13.35;8.73;;;;;;;21.54;100.00;96163.84;10415779;28;20225;-73
2022/08/26 18:04:30;;;;;;;10.75;8.05;;;;;;;21.57;100.00;96199.88;10415357;28;20196;-72
2022/08/26 18:09:31;;;;;;;13.98;9.85;;;;;;;20.68;100.00;96203.69;10415821;28;20192;-72
2022/08/26 18:14:32;;;;;;;14.52;10.30;;;;;;;20.12;100.00;96206.69;10415158;28;20189;-72
2022/08/26 18:19:33;;;;;;;17.38;9.98;;;;;;;20.44;100.00;96208.19;10411916;28;20223;-73
2022/08/26 18:24:33;;;;;;;18.35;9.80;;;;;;;20.59;100.00;96211.19;10414754;28;20198;-73
2022/08/26 18:29:34;;;;;;;16.52;9.93;;;;;;;20.34;100.00;96203.44;10415701;28;20181;-72
2022/08/26 18:34:34;;;;;;;17.63;9.88;;;;;;;20.31;100.00;96210.03;10397477;28;20319;-72
2022/08/26 18:39:35;;;;;;;18.02;10.52;;;;;;;20.03;100.00;96229.31;10414352;28;20216;-72
2022/08/26 18:44:35;;;;;;;18.38;10.63;;;;;;;19.86;100.00;96246.94;10414976;28;20284;-72
2022/08/26 18:49:36;;;;;;;16.90;10.13;;;;;;;19.90;100.00;96248.13;10414745;28;20177;-73
2022/08/26 18:54:36;;;;;;;14.38;10.35;;;;;;;19.76;100.00;96255.47;10396607;28;20192;-72
2022/08/26 18:59:36;;;;;;;17.05;10.30;;;;;;;19.96;100.00;96260.50;10414707;28;20695;-72
2022/08/26 19:04:37;;;;;;;18.55;9.90;;;;;;;20.03;100.00;96263.06;10396196;28;20670;-72
2022/08/26 19:09:37;;;;;;;19.10;9.30;;;;;;;20.03;100.00;96269.22;10414275;28;20185;-73
2022/08/26 19:14:38;;;;;;;19.33;10.23;;;;;;;19.68;100.00;96248.63;10396281;28;20193;-72
2022/08/26 19:19:38;;;;;;;15.45;9.90;;;;;;;19.96;100.00;96248.03;10413690;28;20315;-72
2022/08/26 19:24:38;;;;;;;22.65;8.90;;;;;;;19.89;100.00;96254.47;10395749;28;20189;-72
2022/08/26 19:29:39;;;;;;;19.33;10.65;;;;;;;19.66;100.00;96247.22;10413712;28;20648;-72
2022/08/26 19:34:39;;;;;;;15.10;10.25;;;;;;;19.68;100.00;96245.13;10413098;28;21027;-72
2022/08/26 19:39:39;;;;;;;13.57;9.93;;;;;;;19.68;100.00;96232.66;10413312;28;20217;-72
2022/08/26 19:49:59;;;;;;;12.95;9.65;;;;;;;19.72;100.00;96233.81;10412304;28;20619;-72
2022/08/26 19:55:01;;;;;;;12.02;9.65;;;;;;;19.60;100.00;96227.66;10394337;28;20283;-72
2022/08/26 20:00:04;;;;;;;13.38;9.70;;;;;;;19.52;100.00;96233.28;10394724;28;20696;-72
2022/08/26 20:05:06;;;;;;;13.32;10.38;;;;;;;19.50;100.00;96235.38;10411665;28;20244;-73
2022/08/26 20:10:10;;;;;;;12.48;10.43;;;;;;;19.54;100.00;96234.69;10411832;28;20185;-72
2022/08/26 20:15:11;;;;;;;20.17;10.75;;;;;;;19.33;100.00;96227.22;10390729;28;20262;-72
2022/08/26 20:25:32;;;;;;;16.08;11.68;;;;;;;19.13;100.00;96228.28;10410988;28;20177;-72
2022/08/26 20:30:32;;;;;;;18.30;11.07;;;;;;;19.19;100.00;96226.56;10411093;28;20308;-72
2022/08/26 20:35:32;;;;;;;18.92;9.90;;;;;;;19.39;100.00;96213.84;10410616;28;20225;-72
2022/08/26 20:41:27;;;;;;;15.35;10.18;;;;;;;19.19;100.00;96232.69;10378195;28;20192;-72
2022/08/26 20:46:27;;;;;;;20.38;11.35;;;;;;;19.21;100.00;96230.59;10441229;28;20269;-72
2022/08/26 20:51:28;;;;;;;13.93;10.10;;;;;;;19.35;100.00;96227.78;10450615;28;20602;-72
2022/08/26 20:56:28;;;;;;;16.95;12.18;;;;;;;19.44;100.00;96223.78;10449985;28;20211;-71
2022/08/26 21:01:33;;;;;;;11.93;10.73;;;;;;;19.57;100.00;96214.81;10450261;28;20203;-72
2022/08/26 21:06:33;;;;;;;16.88;11.77;;;;;;;19.34;100.00;96212.88;10431384;28;20227;-72
2022/08/26 21:11:35;;;;;;;15.63;12.23;;;;;;;19.29;100.00;96220.72;10450068;28;20652;-72
2022/08/26 21:16:37;;;;;;;22.80;17.48;;;;;;;19.40;100.00;96206.66;10449679;28;20370;-72
2022/08/26 21:21:38;;;;;;;28.13;20.55;;;;;;;19.24;100.00;96197.50;10432528;28;20199;-71
2022/08/26 21:26:38;;;;;;;9.55;7.43;;;;;;;18.91;100.00;96195.25;10449463;28;20192;-72
2022/08/26 21:31:39;;;;;;;11.52;7.28;;;;;;;18.69;100.00;96187.69;10450693;28;20203;-71
2022/08/26 21:36:39;;;;;;;8.98;6.70;;;;;;;18.52;100.00;96193.56;10432243;28;20227;-72
2022/08/26 21:41:41;;;;;;;10.57;7.15;;;;;;;18.53;100.00;96189.09;10450594;28;20195;-72
2022/08/26 21:46:42;;;;;;;9.77;5.72;;;;;;;18.39;100.00;96203.50;10450273;28;20187;-72
2022/08/26 21:51:45;;;;;;;8.52;6.40;;;;;;;18.16;100.00;96195.16;10450583;28;20595;-72
2022/08/26 21:56:46;;;;;;;11.30;6.30;;;;;;;17.99;100.00;96200.19;10449835;28;20338;-72
2022/08/26 22:01:46;;;;;;;9.95;6.72;;;;;;;17.86;100.00;96208.19;10432453;28;20292;-72
2022/08/26 22:06:49;;;;;;;8.98;7.18;;;;;;;17.85;100.00;96205.75;10449731;28;20313;-72
2022/08/26 22:11:51;;;;;;;8.25;6.35;;;;;;;17.73;100.00;96222.31;10431554;28;20195;-73
2022/08/26 22:16:52;;;;;;;15.05;6.43;;;;;;;17.83;100.00;96221.88;10453869;28;20357;-74
2022/08/26 22:21:53;;;;;;;8.55;6.75;;;;;;;17.59;100.00;96220.78;10438978;28;20334;-72
2022/08/26 22:26:54;;;;;;;9.48;6.38;;;;;;;17.59;100.00;96226.09;10456482;28;20191;-73
2022/08/26 22:31:56;;;;;;;8.10;6.32;;;;;;;17.46;100.00;96241.03;10456981;28;20195;-73
2022/08/26 22:36:56;;;;;;;9.68;6.43;;;;;;;17.37;100.00;96247.59;10422386;28;20215;-72
2022/08/26 22:41:56;;;;;;;13.70;7.70;;;;;;;17.23;100.00;96260.09;10439106;28;20206;-72
2022/08/26 22:46:57;;;;;;;7.97;7.15;;;;;;;17.23;100.00;96264.56;10438148;28;20542;-72
2022/08/26 22:51:57;;;;;;;12.82;7.47;;;;;;;17.19;100.00;96272.09;10456608;28;20207;-73
2022/08/26 22:56:57;;;;;;;11.32;6.78;;;;;;;17.16;100.00;96271.72;10455242;28;20219;-72
2022/08/26 23:01:58;;;;;;;11.30;6.47;;;;;;;17.10;100.00;96270.72;10455954;28;20203;-73
2022/08/26 23:06:58;;;;;;;13.20;7.55;;;;;;;17.07;100.00;96276.41;10455496;28;20240;-72
2022/08/26 23:11:58;;;;;;;13.02;6.88;;;;;;;17.06;100.00;96282.72;10455241;28;20200;-73
2022/08/26 23:16:59;;;;;;;16.13;8.50;;;;;;;16.93;100.00;96286.22;10486594;28;20726;-72
2022/08/26 23:21:59;;;;;;;11.35;9.13;;;;;;;16.84;100.00;96292.72;10458277;28;20199;-72